Time;durP1;ratioP1;P1;durP2;ratioP2;P2;SDS_P1;SDS_P2;PMS_P1;PMS_P2;Temp;Humidity;BMP_temperature;BMP_pressure;BME280_temperature;BME280_humidity;BME280_pressure;Samples;Min_cycle;Max_cycle;Signal;HPM_P1;HPM_P2
2021/12/03 00:00:34;;;;;;;5.90;4.78;;;8.10;96.70;;;;;;4918793;29;20265;-73
2021/12/03 00:03:03;;;;;;;5.85;4.82;;;8.10;96.70;;;;;;4884029;29;20051;-73
2021/12/03 00:05:32;;;;;;;5.10;4.60;;;8.10;96.70;;;;;;4915297;29;20044;-72
2021/12/03 00:08:00;;;;;;;5.60;4.93;;;8.10;96.70;;;;;;4894620;29;20460;-72
2021/12/03 00:10:30;;;;;;;7.60;4.88;;;8.00;96.70;;;;;;4917311;29;20071;-73
2021/12/03 00:12:58;;;;;;;8.10;4.63;;;7.90;96.70;;;;;;4917936;29;20084;-73
2021/12/03 00:15:27;;;;;;;5.18;4.68;;;7.90;96.70;;;;;;4900578;29;20064;-73
2021/12/03 00:17:55;;;;;;;6.75;4.97;;;8.00;96.70;;;;;;4901635;29;20494;-72
2021/12/03 00:20:25;;;;;;;6.18;4.63;;;7.90;96.70;;;;;;4899479;29;20047;-73
2021/12/03 00:22:58;;;;;;;5.55;4.68;;;7.90;96.70;;;;;;4915522;29;20059;-73
2021/12/03 00:25:26;;;;;;;6.45;5.03;;;7.90;96.70;;;;;;4893243;29;20046;-73
2021/12/03 00:27:55;;;;;;;5.88;4.47;;;7.90;96.70;;;;;;4919300;29;20102;-74
2021/12/03 00:30:23;;;;;;;5.15;4.40;;;7.90;96.70;;;;;;4902996;29;20052;-74
2021/12/03 00:32:52;;;;;;;5.45;4.80;;;8.00;96.70;;;;;;4891137;29;20075;-74
2021/12/03 00:35:20;;;;;;;6.05;4.85;;;8.00;96.70;;;;;;4887268;29;20043;-74
2021/12/03 00:37:49;;;;;;;6.78;4.95;;;8.00;96.70;;;;;;4896209;29;20435;-74
2021/12/03 00:40:21;;;;;;;6.18;4.55;;;8.00;96.70;;;;;;4901721;29;20050;-74
2021/12/03 00:42:50;;;;;;;6.97;4.20;;;7.90;96.70;;;;;;4904240;29;20323;-74
2021/12/03 00:45:20;;;;;;;5.13;4.10;;;7.80;96.70;;;;;;4916986;29;20074;-74
2021/12/03 00:47:48;;;;;;;6.10;3.83;;;7.80;96.70;;;;;;4903000;29;20040;-75
2021/12/03 00:50:19;;;;;;;4.72;4.18;;;7.90;96.70;;;;;;4908487;29;20510;-74
2021/12/03 00:52:48;;;;;;;4.40;3.72;;;7.90;96.70;;;;;;4901525;29;20098;-74
2021/12/03 00:55:17;;;;;;;4.65;3.38;;;7.80;96.70;;;;;;4898444;29;20599;-75
2021/12/03 00:57:46;;;;;;;3.58;3.10;;;7.80;96.70;;;;;;4900476;29;20048;-74
2021/12/03 01:00:17;;;;;;;4.03;3.10;;;7.90;96.70;;;;;;4901556;29;20032;-74
2021/12/03 01:02:47;;;;;;;3.63;2.80;;;7.90;96.70;;;;;;4917437;29;20491;-75
2021/12/03 01:05:16;;;;;;;4.22;3.20;;;7.80;96.70;;;;;;4914475;29;20043;-75
2021/12/03 01:07:44;;;;;;;3.38;2.85;;;7.80;96.70;;;;;;4904409;29;20132;-74
2021/12/03 01:10:13;;;;;;;5.13;2.60;;;7.70;96.70;;;;;;4920452;29;20056;-74
2021/12/03 01:12:41;;;;;;;2.97;2.63;;;7.70;96.70;;;;;;4898092;29;20510;-74
2021/12/03 01:15:12;;;;;;;3.40;2.30;;;7.80;96.70;;;;;;4913046;29;20155;-75
2021/12/03 01:17:40;;;;;;;4.07;2.47;;;7.70;96.70;;;;;;4918054;29;20522;-74
2021/12/03 01:20:11;;;;;;;5.57;2.65;;;7.60;96.70;;;;;;4902662;29;20040;-74
2021/12/03 01:22:41;;;;;;;4.07;2.80;;;7.60;96.70;;;;;;4904458;29;20427;-74
2021/12/03 01:25:11;;;;;;;3.50;2.85;;;7.60;96.70;;;;;;4922356;29;20052;-74
2021/12/03 01:27:39;;;;;;;3.85;2.65;;;7.60;96.70;;;;;;4901127;29;20035;-74
2021/12/03 01:30:10;;;;;;;3.83;2.33;;;7.60;96.70;;;;;;4900939;29;20058;-74
2021/12/03 01:32:39;;;;;;;4.43;2.88;;;7.60;96.70;;;;;;4904862;29;20513;-74
2021/12/03 01:35:11;;;;;;;3.00;2.50;;;7.60;96.70;;;;;;4922423;29;20055;-74
2021/12/03 01:37:40;;;;;;;4.80;2.42;;;7.60;96.70;;;;;;4908099;29;20043;-74
2021/12/03 01:40:12;;;;;;;3.45;2.65;;;7.60;96.70;;;;;;4903277;29;20769;-75
2021/12/03 01:42:44;;;;;;;2.50;1.88;;;7.60;96.70;;;;;;4896049;29;20045;-74
2021/12/03 01:45:15;;;;;;;3.28;2.40;;;7.60;96.70;;;;;;4902479;29;20480;-74
2021/12/03 01:47:45;;;;;;;2.55;1.70;;;7.60;96.70;;;;;;4917308;29;20469;-74
2021/12/03 01:50:15;;;;;;;2.75;2.13;;;7.60;96.70;;;;;;4912594;29;20382;-76
2021/12/03 01:52:43;;;;;;;2.65;2.00;;;7.60;96.70;;;;;;4921675;29;20054;-75
2021/12/03 01:55:12;;;;;;;2.72;2.30;;;7.70;96.70;;;;;;4889877;29;20050;-74
2021/12/03 01:57:41;;;;;;;2.60;2.08;;;7.70;96.70;;;;;;4925761;29;20035;-74
2021/12/03 02:00:13;;;;;;;3.00;2.08;;;7.60;96.70;;;;;;4905603;29;20056;-76
2021/12/03 02:02:41;;;;;;;3.35;2.30;;;7.50;96.70;;;;;;4925049;29;20044;-74
2021/12/03 02:05:10;;;;;;;2.17;1.92;;;7.50;96.70;;;;;;4924916;29;20044;-74
2021/12/03 02:07:40;;;;;;;2.35;1.60;;;7.50;96.70;;;;;;4898487;29;20051;-74
2021/12/03 02:10:09;;;;;;;2.85;2.03;;;7.50;96.70;;;;;;4909524;29;20048;-75
2021/12/03 02:12:38;;;;;;;2.47;1.90;;;7.50;96.70;;;;;;4904743;29;20056;-74
2021/12/03 02:15:07;;;;;;;4.63;2.00;;;7.50;96.70;;;;;;4884411;29;20127;-75
2021/12/03 02:17:36;;;;;;;2.63;1.67;;;7.60;96.70;;;;;;4920268;29;20135;-75
2021/12/03 02:20:06;;;;;;;4.00;2.10;;;7.70;96.70;;;;;;4904335;29;20039;-74
2021/12/03 02:22:37;;;;;;;4.82;1.80;;;7.70;96.70;;;;;;4920397;29;20044;-74
2021/12/03 02:25:06;;;;;;;2.55;1.38;;;7.80;96.70;;;;;;4925085;29;20075;-74
2021/12/03 02:27:35;;;;;;;2.70;1.45;;;7.80;96.70;;;;;;4924177;29;20103;-74
2021/12/03 02:30:05;;;;;;;1.80;1.65;;;7.80;96.70;;;;;;4920092;29;20143;-74
2021/12/03 02:32:34;;;;;;;2.13;1.50;;;7.70;96.70;;;;;;4924796;29;20529;-74
2021/12/03 02:35:03;;;;;;;2.42;1.42;;;7.80;96.70;;;;;;4915263;29;20036;-75
2021/12/03 02:37:31;;;;;;;4.53;1.70;;;7.80;96.70;;;;;;4919240;29;20048;-74
2021/12/03 02:40:01;;;;;;;2.78;1.70;;;7.80;96.70;;;;;;4928445;29;20875;-74
2021/12/03 02:42:29;;;;;;;1.70;1.33;;;7.80;96.70;;;;;;4921844;29;20240;-74
2021/12/03 02:44:57;;;;;;;3.60;2.00;;;7.80;96.70;;;;;;4899828;29;20044;-74
2021/12/03 02:47:26;;;;;;;1.88;1.45;;;7.80;96.70;;;;;;4920911;29;20050;-75
2021/12/03 02:49:54;;;;;;;2.47;1.88;;;7.80;96.70;;;;;;4923097;29;20150;-74
2021/12/03 02:52:22;;;;;;;2.42;2.00;;;7.80;96.70;;;;;;4883496;29;20487;-74
2021/12/03 02:54:50;;;;;;;5.13;2.42;;;7.70;96.70;;;;;;4917896;29;20044;-75
2021/12/03 02:57:19;;;;;;;2.42;1.90;;;7.70;96.70;;;;;;4909071;29;20132;-74
2021/12/03 02:59:47;;;;;;;2.65;2.05;;;7.80;96.70;;;;;;4900402;29;20068;-74
2021/12/03 03:02:16;;;;;;;2.97;2.00;;;7.80;96.70;;;;;;4900856;29;20502;-74
2021/12/03 03:04:53;;;;;;;2.80;1.75;;;7.90;96.70;;;;;;4901314;29;20089;-75
2021/12/03 03:07:21;;;;;;;2.10;1.70;;;8.00;96.70;;;;;;4920286;29;20051;-75
2021/12/03 03:09:49;;;;;;;2.72;1.85;;;8.00;96.70;;;;;;4902696;29;20568;-74
2021/12/03 03:12:19;;;;;;;2.83;1.90;;;8.00;96.70;;;;;;4903072;29;20047;-74
2021/12/03 03:14:53;;;;;;;2.20;1.70;;;8.10;96.70;;;;;;4886831;29;20406;-75
2021/12/03 03:17:23;;;;;;;2.58;2.00;;;8.10;96.70;;;;;;4910019;29;20512;-74
2021/12/03 03:19:51;;;;;;;2.92;1.98;;;8.10;96.70;;;;;;4902594;29;20062;-74
2021/12/03 03:22:20;;;;;;;2.83;1.95;;;8.20;96.70;;;;;;4919526;29;20064;-74
2021/12/03 03:24:48;;;;;;;2.15;1.88;;;8.10;96.70;;;;;;4894866;29;20491;-75
2021/12/03 03:27:16;;;;;;;3.38;1.90;;;8.10;96.70;;;;;;4899117;29;20138;-74
2021/12/03 03:29:48;;;;;;;2.92;1.92;;;8.10;96.70;;;;;;4923270;29;20111;-74
2021/12/03 03:32:16;;;;;;;3.78;2.30;;;8.10;96.70;;;;;;4899251;29;20043;-74
2021/12/03 03:34:44;;;;;;;2.80;2.00;;;8.00;96.70;;;;;;4913177;29;20620;-75
2021/12/03 03:37:12;;;;;;;3.15;2.15;;;7.90;96.70;;;;;;4907035;29;20047;-75
2021/12/03 03:39:40;;;;;;;3.33;2.05;;;7.90;96.70;;;;;;4899368;29;20507;-74
2021/12/03 03:42:08;;;;;;;3.22;2.60;;;7.90;96.70;;;;;;4900298;29;20134;-74
2021/12/03 03:44:39;;;;;;;3.08;2.35;;;7.90;96.70;;;;;;4897627;29;20036;-75
2021/12/03 03:47:10;;;;;;;2.92;2.45;;;7.80;96.70;;;;;;4916295;29;20043;-74
2021/12/03 03:49:39;;;;;;;4.60;2.70;;;7.70;96.70;;;;;;4897556;29;20044;-74
2021/12/03 03:52:07;;;;;;;3.72;2.72;;;7.70;96.70;;;;;;4898723;29;20044;-74
2021/12/03 03:54:35;;;;;;;4.95;2.42;;;7.70;96.70;;;;;;4915972;29;20558;-74
2021/12/03 03:57:04;;;;;;;3.85;2.97;;;7.80;96.70;;;;;;4917280;29;20048;-75
2021/12/03 03:59:32;;;;;;;3.40;2.65;;;7.80;96.70;;;;;;4912978;29;20047;-74
2021/12/03 04:02:00;;;;;;;4.72;2.80;;;7.80;96.70;;;;;;4900737;29;20052;-74
2021/12/03 04:04:29;;;;;;;3.78;2.58;;;7.80;96.70;;;;;;4908530;29;20071;-76
2021/12/03 04:06:57;;;;;;;3.15;2.60;;;7.80;96.70;;;;;;4919615;29;20094;-74
2021/12/03 04:09:25;;;;;;;4.00;2.90;;;7.80;96.70;;;;;;4903153;29;20043;-74
2021/12/03 04:11:53;;;;;;;3.60;2.50;;;7.80;96.70;;;;;;4904519;29;20048;-74
2021/12/03 04:14:21;;;;;;;3.25;2.60;;;7.70;96.70;;;;;;4920479;29;20110;-75
2021/12/03 04:16:50;;;;;;;3.72;2.80;;;7.70;96.70;;;;;;4898800;29;20082;-75
2021/12/03 04:19:18;;;;;;;3.53;2.88;;;7.70;96.70;;;;;;4920017;29;20035;-75
2021/12/03 04:21:49;;;;;;;4.07;2.90;;;7.70;96.70;;;;;;4900976;29;20044;-74
2021/12/03 04:24:17;;;;;;;5.30;3.38;;;7.70;96.70;;;;;;4917022;29;20138;-74
2021/12/03 04:26:45;;;;;;;3.45;2.80;;;7.60;96.70;;;;;;4916164;29;20517;-75
2021/12/03 04:29:13;;;;;;;3.15;2.70;;;7.60;96.70;;;;;;4899932;29;20044;-74
2021/12/03 04:31:41;;;;;;;4.20;2.90;;;7.60;96.70;;;;;;4921326;29;20127;-74
2021/12/03 04:34:09;;;;;;;3.30;2.60;;;7.60;96.70;;;;;;4918248;29;20039;-74
2021/12/03 04:36:40;;;;;;;3.28;2.72;;;7.50;96.70;;;;;;4899496;29;20063;-74
2021/12/03 04:39:12;;;;;;;3.10;2.42;;;7.50;96.70;;;;;;4898367;29;20048;-75
2021/12/03 04:41:40;;;;;;;2.95;2.65;;;7.50;96.70;;;;;;4899877;29;20048;-74
2021/12/03 04:44:08;;;;;;;4.18;2.67;;;7.50;96.70;;;;;;4920176;29;20415;-74
2021/12/03 04:46:36;;;;;;;3.20;2.33;;;7.50;96.70;;;;;;4895820;29;20099;-74
2021/12/03 04:49:04;;;;;;;2.95;2.40;;;7.60;96.70;;;;;;4902272;29;20055;-74
2021/12/03 04:51:32;;;;;;;3.53;2.70;;;7.60;96.70;;;;;;4900112;29;20055;-74
2021/12/03 04:53:59;;;;;;;3.00;2.38;;;7.60;96.70;;;;;;4917118;29;20039;-74
2021/12/03 04:56:29;;;;;;;3.70;2.40;;;7.60;96.70;;;;;;4899375;29;20043;-74
2021/12/03 04:58:57;;;;;;;3.95;2.33;;;7.60;96.70;;;;;;4916731;29;20040;-74
2021/12/03 05:01:27;;;;;;;3.08;2.05;;;7.60;96.70;;;;;;4901251;29;20067;-74
2021/12/03 05:03:56;;;;;;;2.53;1.80;;;7.50;96.70;;;;;;4920112;29;20039;-73
2021/12/03 05:06:41;;;;;;;2.20;1.88;;;7.40;96.70;;;;;;4898199;29;20055;-73
2021/12/03 05:09:09;;;;;;;3.47;2.10;;;7.40;96.70;;;;;;4897244;29;20044;-73
2021/12/03 05:11:38;;;;;;;2.13;1.75;;;7.40;96.70;;;;;;4917491;29;20068;-73
2021/12/03 05:14:06;;;;;;;2.08;1.85;;;7.40;96.70;;;;;;4900870;29;20056;-73
2021/12/03 05:16:34;;;;;;;2.67;1.90;;;7.40;96.70;;;;;;4917783;29;20387;-73
2021/12/03 05:19:03;;;;;;;2.92;2.00;;;7.40;96.70;;;;;;4918156;29;20051;-73
2021/12/03 05:21:31;;;;;;;2.58;2.08;;;7.30;96.70;;;;;;4916914;29;20043;-73
2021/12/03 05:23:58;;;;;;;3.00;1.70;;;7.30;96.70;;;;;;4904295;29;20520;-73
2021/12/03 05:26:27;;;;;;;2.88;1.60;;;7.30;96.70;;;;;;4919399;29;20055;-73
2021/12/03 05:28:56;;;;;;;2.53;1.92;;;7.40;96.70;;;;;;4907134;29;20052;-73
2021/12/03 05:31:24;;;;;;;2.78;1.65;;;7.40;96.70;;;;;;4904547;29;20040;-73
2021/12/03 05:33:52;;;;;;;2.03;1.40;;;7.40;96.70;;;;;;4907008;29;20044;-75
2021/12/03 05:36:20;;;;;;;2.10;1.48;;;7.40;96.70;;;;;;4908775;29;20040;-73
2021/12/03 05:38:48;;;;;;;2.28;1.83;;;7.30;96.70;;;;;;4904294;29;20535;-73
2021/12/03 05:41:32;;;;;;;14.30;8.63;;;7.30;96.70;;;;;;4917552;29;20044;-73
2021/12/03 05:44:02;;;;;;;15.68;8.35;;;7.30;96.70;;;;;;4900501;29;20044;-73
2021/12/03 05:46:30;;;;;;;17.48;10.77;;;7.20;96.70;;;;;;4920102;29;20503;-73
2021/12/03 05:48:59;;;;;;;16.30;9.30;;;7.20;96.70;;;;;;4919205;29;20778;-73
2021/12/03 05:51:28;;;;;;;12.13;7.28;;;7.20;96.70;;;;;;4920485;29;20212;-73
2021/12/03 05:53:56;;;;;;;11.10;6.80;;;7.10;96.70;;;;;;4903487;29;20078;-73
2021/12/03 05:56:25;;;;;;;9.00;5.88;;;7.20;96.70;;;;;;4919174;29;20048;-73
2021/12/03 05:58:53;;;;;;;8.35;4.72;;;7.10;96.70;;;;;;4904642;29;20556;-73
2021/12/03 06:01:22;;;;;;;7.28;4.90;;;7.10;96.70;;;;;;4918586;29;20122;-73
2021/12/03 06:03:50;;;;;;;6.13;3.85;;;7.10;96.70;;;;;;4902484;29;20043;-73
2021/12/03 06:06:18;;;;;;;4.38;2.85;;;7.10;96.70;;;;;;4910357;29;20055;-73
2021/12/03 06:08:47;;;;;;;5.47;2.65;;;7.10;96.70;;;;;;4904392;29;20044;-73
2021/12/03 06:11:16;;;;;;;4.35;2.72;;;7.10;96.70;;;;;;4906977;29;20057;-73
2021/12/03 06:13:44;;;;;;;3.30;2.38;;;7.10;96.70;;;;;;4918637;29;20048;-73
2021/12/03 06:16:14;;;;;;;2.92;2.25;;;7.10;96.70;;;;;;4925233;29;20723;-73
2021/12/03 06:18:43;;;;;;;2.40;1.90;;;7.00;96.70;;;;;;4893321;29;20055;-73
2021/12/03 06:21:14;;;;;;;3.78;2.10;;;6.90;96.70;;;;;;4906533;29;20054;-73
2021/12/03 06:23:43;;;;;;;2.55;1.48;;;6.90;96.70;;;;;;4920159;29;20044;-73
2021/12/03 06:26:11;;;;;;;2.42;1.58;;;7.00;96.70;;;;;;4907119;29;20044;-73
2021/12/03 06:28:40;;;;;;;3.08;1.70;;;7.00;96.70;;;;;;4908334;29;20049;-73
2021/12/03 06:31:09;;;;;;;2.38;1.65;;;7.00;96.70;;;;;;4917122;29;20529;-72
2021/12/03 06:33:37;;;;;;;1.42;1.00;;;7.00;96.70;;;;;;4919248;29;20066;-73
2021/12/03 06:36:06;;;;;;;2.42;1.50;;;7.00;96.70;;;;;;4906982;29;20044;-73
2021/12/03 06:38:34;;;;;;;1.85;1.30;;;7.00;96.70;;;;;;4904888;29;20039;-73
2021/12/03 06:41:02;;;;;;;1.60;1.10;;;7.00;96.70;;;;;;4922524;29;20094;-73
2021/12/03 06:43:30;;;;;;;2.58;1.40;;;7.00;96.70;;;;;;4901764;29;20494;-73
2021/12/03 06:45:58;;;;;;;2.17;1.60;;;7.10;96.70;;;;;;4899665;29;20618;-73
2021/12/03 06:48:26;;;;;;;1.92;1.60;;;7.00;96.70;;;;;;4885449;29;20138;-73
2021/12/03 06:50:54;;;;;;;3.08;1.33;;;6.90;96.70;;;;;;4912604;29;20047;-74
2021/12/03 06:53:43;;;;;;;1.73;1.20;;;6.90;96.70;;;;;;4903940;29;20055;-73
2021/12/03 06:56:21;;;;;;;2.00;1.48;;;6.90;96.70;;;;;;4918409;29;20538;-73
2021/12/03 06:58:49;;;;;;;3.55;1.70;;;6.90;96.70;;;;;;4923782;29;20043;-73
2021/12/03 07:01:17;;;;;;;2.28;1.65;;;7.00;96.70;;;;;;4883238;29;20126;-73
2021/12/03 07:03:45;;;;;;;2.47;2.05;;;7.00;96.70;;;;;;4897681;29;20045;-73
2021/12/03 07:06:13;;;;;;;3.13;1.63;;;7.10;96.70;;;;;;4904410;29;20043;-73
2021/12/03 07:08:43;;;;;;;2.38;1.83;;;7.00;96.70;;;;;;4919483;29;20050;-73
2021/12/03 07:11:11;;;;;;;2.70;1.92;;;7.00;96.70;;;;;;4904608;29;20525;-73
2021/12/03 07:13:39;;;;;;;4.05;2.10;;;7.10;96.70;;;;;;4856982;29;1430183;-73
2021/12/03 07:16:07;;;;;;;4.68;2.10;;;7.10;96.70;;;;;;4916127;29;20600;-73
2021/12/03 07:18:35;;;;;;;2.78;1.20;;;7.10;96.70;;;;;;4902593;29;20118;-73
2021/12/03 07:21:04;;;;;;;2.05;1.48;;;7.10;96.70;;;;;;4903919;29;20048;-73
2021/12/03 07:23:32;;;;;;;0.90;0.70;;;7.10;96.70;;;;;;4890898;29;20157;-73
2021/12/03 07:26:02;;;;;;;0.93;0.73;;;7.20;96.70;;;;;;4903918;29;20638;-73
2021/12/03 07:28:30;;;;;;;1.15;0.90;;;7.30;96.70;;;;;;4916876;29;20040;-73
2021/12/03 07:30:58;;;;;;;1.10;0.88;;;7.40;96.70;;;;;;4897471;29;20040;-73
2021/12/03 07:33:31;;;;;;;2.30;1.33;;;7.40;96.70;;;;;;4901992;29;20046;-74
2021/12/03 07:35:59;;;;;;;1.35;0.70;;;7.50;96.70;;;;;;4917836;29;20135;-73
2021/12/03 07:38:28;;;;;;;1.55;1.17;;;7.50;96.70;;;;;;4883575;29;20522;-73
2021/12/03 07:40:56;;;;;;;1.42;0.88;;;7.50;96.70;;;;;;4901171;29;20510;-73
2021/12/03 07:43:26;;;;;;;1.60;0.90;;;7.50;96.70;;;;;;4905246;29;20067;-74
2021/12/03 07:45:54;;;;;;;1.02;0.82;;;7.60;96.70;;;;;;4919457;29;20048;-73
2021/12/03 07:48:25;;;;;;;1.85;0.90;;;7.60;96.70;;;;;;4919771;29;20565;-74
2021/12/03 07:50:55;;;;;;;0.80;0.60;;;7.70;96.70;;;;;;4924029;29;20082;-74
2021/12/03 07:53:24;;;;;;;0.75;0.50;;;7.70;96.70;;;;;;4905135;29;20052;-74
2021/12/03 07:55:54;;;;;;;1.20;0.60;;;7.80;96.70;;;;;;4918519;29;20048;-74
2021/12/03 07:58:22;;;;;;;1.15;0.60;;;7.90;96.70;;;;;;4919228;29;20050;-74
2021/12/03 08:00:54;;;;;;;1.83;0.50;;;8.00;96.70;;;;;;4916478;29;20469;-71
2021/12/03 08:03:23;;;;;;;0.63;0.35;;;8.10;96.70;;;;;;4918254;29;20067;-72
2021/12/03 08:05:51;;;;;;;0.90;0.50;;;8.20;96.70;;;;;;4920298;29;20704;-72
2021/12/03 08:08:23;;;;;;;0.65;0.25;;;8.30;96.70;;;;;;4900763;29;20056;-72
2021/12/03 08:10:55;;;;;;;0.40;0.30;;;8.30;96.70;;;;;;4920327;29;20523;-73
2021/12/03 08:13:23;;;;;;;0.30;0.30;;;8.40;96.70;;;;;;4923415;29;20139;-73
2021/12/03 08:15:53;;;;;;;0.20;0.10;;;8.50;96.70;;;;;;4916924;29;20126;-72
2021/12/03 08:18:21;;;;;;;0.68;0.20;;;8.50;96.70;;;;;;4900214;29;20141;-72
2021/12/03 08:20:49;;;;;;;0.77;0.17;;;8.70;96.70;;;;;;4917048;29;20059;-73
2021/12/03 08:23:18;;;;;;;0.38;0.10;;;8.80;96.70;;;;;;4902490;29;20091;-72
2021/12/03 08:25:46;;;;;;;0.70;0.17;;;8.90;96.70;;;;;;4902558;29;20071;-73
2021/12/03 08:28:14;;;;;;;0.47;0.20;;;8.90;96.70;;;;;;4895837;29;20075;-73
2021/12/03 08:30:42;;;;;;;0.60;0.30;;;9.00;96.70;;;;;;4918434;29;20123;-72
2021/12/03 08:33:17;;;;;;;1.63;0.70;;;9.00;96.70;;;;;;4913730;29;20044;-72
2021/12/03 08:35:46;;;;;;;1.77;0.90;;;9.00;96.70;;;;;;4898367;29;20054;-72
2021/12/03 08:38:14;;;;;;;1.92;0.82;;;9.10;96.70;;;;;;4917181;29;20374;-73
2021/12/03 08:41:03;;;;;;;2.05;0.93;;;9.20;96.70;;;;;;4905072;29;20208;-72
2021/12/03 08:43:31;;;;;;;2.72;1.10;;;9.20;96.70;;;;;;4918316;29;20674;-73
2021/12/03 08:46:08;;;;;;;1.85;0.88;;;9.20;96.70;;;;;;4917702;29;20630;-72
2021/12/03 08:48:40;;;;;;;1.30;0.88;;;9.20;96.70;;;;;;4908255;29;20414;-73
2021/12/03 08:56:31;;;;;;;;;;;9.40;96.70;;;;;;4914593;29;20047;-73
2021/12/03 08:59:00;;;;;;;2.03;1.00;;;9.30;96.70;;;;;;4892995;29;19937;-73
2021/12/03 09:01:28;;;;;;;3.28;1.02;;;9.50;96.70;;;;;;4903654;29;20573;-73
2021/12/03 09:03:58;;;;;;;2.55;0.70;;;9.60;96.70;;;;;;4904867;29;20078;-74
2021/12/03 09:06:27;;;;;;;1.60;0.45;;;9.60;96.70;;;;;;4901366;29;20055;-72
2021/12/03 09:08:55;;;;;;;3.72;0.80;;;9.70;96.70;;;;;;4902111;29;20103;-73
2021/12/03 09:11:24;;;;;;;0.98;0.50;;;9.80;96.70;;;;;;4918187;28;20040;-73
2021/12/03 09:13:52;;;;;;;1.00;0.30;;;9.90;96.70;;;;;;4895808;29;20067;-73
2021/12/03 09:16:22;;;;;;;1.23;0.30;;;10.00;96.70;;;;;;4898017;29;20051;-73
2021/12/03 09:18:52;;;;;;;0.80;0.30;;;10.00;96.70;;;;;;4915328;29;20067;-73
2021/12/03 09:21:28;;;;;;;0.68;0.43;;;10.10;96.70;;;;;;4897643;29;20071;-73
2021/12/03 09:26:35;;;;;;;1.30;0.40;;;10.20;96.70;;;;;;4912634;29;20363;-75
2021/12/03 09:29:06;;;;;;;0.60;0.40;;;10.30;96.70;;;;;;4889362;29;20474;-74
2021/12/03 09:31:37;;;;;;;2.83;0.40;;;10.40;96.70;;;;;;4896947;29;20463;-74
2021/12/03 09:34:10;;;;;;;2.03;0.40;;;10.50;96.70;;;;;;4901100;29;20380;-74
2021/12/03 09:36:41;;;;;;;1.17;0.40;;;10.50;96.70;;;;;;4899905;29;20471;-74
2021/12/03 09:39:16;;;;;;;1.08;0.30;;;10.60;96.70;;;;;;4912874;29;20395;-74
2021/12/03 09:41:44;;;;;;;2.15;0.50;;;10.60;96.70;;;;;;4920813;29;20050;-74
2021/12/03 09:44:12;;;;;;;0.63;0.17;;;10.70;96.70;;;;;;4893801;29;20135;-74
2021/12/03 09:46:40;;;;;;;1.08;0.30;;;10.70;96.70;;;;;;4920038;29;20254;-73
2021/12/03 09:49:24;;;;;;;0.57;0.20;;;10.80;96.70;;;;;;4926093;29;20039;-74
2021/12/03 09:54:43;;;;;;;0.00;0.00;;;10.90;96.70;;;;;;4916911;29;20051;-73
2021/12/03 09:57:15;;;;;;;0.00;0.00;;;11.10;96.70;;;;;;4886048;29;20485;-74
2021/12/03 10:05:16;;;;;;;1.27;0.00;;;11.20;96.70;;;;;;4920396;29;20040;-73
2021/12/03 10:11:38;;;;;;;0.00;0.00;;;11.30;96.70;;;;;;4907281;29;20050;-73
2021/12/03 10:13:53;;;;;;;0.10;0.00;;;11.30;96.70;;;;;;4904909;29;20056;-73
2021/12/03 10:16:36;;;;;;;2.58;0.30;;;11.30;96.70;;;;;;4885412;29;20040;-74
2021/12/03 10:19:35;;;;;;;0.80;0.00;;;11.30;96.70;;;;;;4897252;29;20140;-73
2021/12/03 10:35:42;;;;;;;0.00;0.00;;;11.50;96.70;;;;;;4901968;29;20113;-74
2021/12/03 10:55:16;;;;;;;0.10;0.10;;;11.80;96.70;;;;;;4883666;29;20411;-74
2021/12/03 11:11:59;;;;;;;0.22;0.10;;;12.00;96.70;;;;;;4849966;29;20049;-74
2021/12/03 11:26:36;;;;;;;0.10;0.10;;;12.40;96.70;;;;;;4916463;29;20566;-74
2021/12/03 11:34:33;;;;;;;0.22;0.08;;;12.50;96.70;;;;;;4900741;29;20059;-73
2021/12/03 12:18:54;;;;;;;0.65;0.10;;;13.20;96.70;;;;;;4894519;29;20060;-72
2021/12/03 12:58:31;;;;;;;1.45;0.38;;;13.20;96.70;;;;;;4878251;29;20134;-72
2021/12/03 13:04:36;;;;;;;1.08;0.32;;;13.30;96.70;;;;;;4902722;29;20054;-72
2021/12/03 13:09:15;;;;;;;0.20;0.05;;;13.30;96.70;;;;;;4898731;29;20055;-73
2021/12/03 13:39:42;;;;;;;1.65;0.22;;;12.40;96.70;;;;;;4915583;29;20044;-73
2021/12/03 13:45:47;;;;;;;1.73;0.28;;;12.20;96.70;;;;;;4917952;29;20505;-72
2021/12/03 14:07:43;;;;;;;1.58;0.80;;;11.70;96.70;;;;;;4918950;29;20048;-72
2021/12/03 14:10:46;;;;;;;0.90;0.30;;;11.70;96.70;;;;;;4907952;29;20067;-73
2021/12/03 14:38:08;;;;;;;0.90;0.40;;;11.60;96.70;;;;;;4914597;29;20131;-73
2021/12/03 14:41:22;;;;;;;1.38;0.47;;;11.60;96.70;;;;;;4915064;29;20052;-72
2021/12/03 14:43:36;;;;;;;0.82;0.50;;;11.50;96.70;;;;;;4898195;29;20641;-72
2021/12/03 14:46:26;;;;;;;0.60;0.40;;;11.50;96.70;;;;;;4903170;29;20524;-72
2021/12/03 14:51:56;;;;;;;1.40;0.65;;;11.40;96.70;;;;;;4919653;29;20039;-73
2021/12/03 14:54:45;;;;;;;1.23;0.73;;;11.40;96.70;;;;;;4919046;29;20067;-72
2021/12/03 15:00:27;;;;;;;1.70;0.80;;;11.30;96.70;;;;;;4921830;29;20055;-72
2021/12/03 15:05:45;;;;;;;1.40;0.70;;;11.20;96.70;;;;;;4921716;29;20063;-72
2021/12/03 15:08:20;;;;;;;1.52;0.70;;;11.20;96.70;;;;;;4903267;29;20470;-72
2021/12/03 15:13:56;;;;;;;2.67;0.70;;;11.20;96.70;;;;;;4899274;29;20092;-72
2021/12/03 16:24:49;;;;;;;5.50;3.20;;;10.10;96.70;;;;;;4901280;29;20056;-73
2021/12/03 16:44:02;;;;;;;8.40;4.85;;;9.90;96.70;;;;;;4901972;29;20154;-73
2021/12/03 16:51:49;;;;;;;10.48;5.57;;;9.80;96.70;;;;;;4900543;29;21089;-73
2021/12/03 16:54:52;;;;;;;11.57;6.47;;;9.70;96.70;;;;;;4913763;29;20048;-73
2021/12/03 16:57:22;;;;;;;9.93;5.97;;;9.80;96.70;;;;;;4912759;29;20439;-73
2021/12/03 16:59:50;;;;;;;7.85;4.80;;;9.80;96.70;;;;;;4912980;29;20047;-73
2021/12/03 17:02:34;;;;;;;7.70;4.13;;;9.70;96.70;;;;;;4896330;29;20048;-73
2021/12/03 17:16:47;;;;;;;6.57;4.13;;;9.60;96.70;;;;;;4862884;29;20484;-73
2021/12/03 17:59:52;;;;;;;8.77;5.40;;;9.40;96.70;;;;;;4921802;29;20095;-73
2021/12/03 18:05:05;;;;;;;8.73;6.03;;;9.30;96.70;;;;;;4901099;29;20059;-73
2021/12/03 18:07:52;;;;;;;8.30;5.32;;;9.30;96.70;;;;;;4904799;29;20060;-72
2021/12/03 18:56:31;;;;;;;16.05;10.40;;;8.60;96.70;;;;;;4915715;29;20093;-73
2021/12/03 18:59:04;;;;;;;16.58;10.05;;;8.60;96.70;;;;;;4920989;29;20663;-73
2021/12/03 19:01:34;;;;;;;11.35;7.32;;;8.50;96.70;;;;;;4921672;29;20509;-74
2021/12/03 19:04:20;;;;;;;11.52;7.30;;;8.60;96.70;;;;;;4904084;29;20040;-73
2021/12/03 19:09:31;;;;;;;8.63;7.10;;;8.60;96.70;;;;;;4917976;29;20058;-73
2021/12/03 19:12:07;;;;;;;12.30;7.37;;;8.60;96.70;;;;;;4896932;29;20043;-73
2021/12/03 19:14:43;;;;;;;9.38;7.05;;;8.70;96.70;;;;;;4897230;29;20147;-73
2021/12/03 19:17:11;;;;;;;8.50;6.10;;;8.70;96.70;;;;;;4879792;29;20143;-73
2021/12/03 19:19:43;;;;;;;10.02;5.68;;;8.70;96.70;;;;;;4901083;29;20503;-73
2021/12/03 19:22:13;;;;;;;6.47;4.70;;;8.80;96.70;;;;;;4880362;29;20040;-74
2021/12/03 19:24:42;;;;;;;7.45;5.28;;;8.70;96.70;;;;;;4884798;29;20055;-74
2021/12/03 19:27:13;;;;;;;7.95;5.18;;;8.70;96.70;;;;;;4899738;29;20087;-74
2021/12/03 19:29:43;;;;;;;10.40;6.38;;;8.60;96.70;;;;;;4903033;29;20136;-74
2021/12/03 19:32:11;;;;;;;10.50;8.57;;;8.50;96.70;;;;;;4880578;29;20067;-73
2021/12/03 19:34:39;;;;;;;10.65;7.18;;;8.40;96.70;;;;;;4881971;29;20048;-73
2021/12/03 19:37:08;;;;;;;13.93;7.55;;;8.40;96.70;;;;;;4877642;29;20063;-73
2021/12/03 19:39:37;;;;;;;9.73;7.13;;;8.30;96.70;;;;;;4882402;29;20511;-74
2021/12/03 19:42:21;;;;;;;9.15;7.03;;;8.20;96.70;;;;;;4881026;29;20127;-74
2021/12/03 19:45:01;;;;;;;10.95;7.07;;;8.20;96.70;;;;;;4878728;29;20044;-75
2021/12/03 19:47:45;;;;;;;10.88;6.78;;;8.20;96.70;;;;;;4899046;29;20044;-75
2021/12/03 19:51:00;;;;;;;12.57;7.65;;;8.20;96.70;;;;;;4882779;29;20555;-75
2021/12/03 19:53:26;;;;;;;12.90;8.55;;;8.20;96.70;;;;;;4891009;29;20076;-74
2021/12/03 19:55:55;;;;;;;16.50;9.68;;;8.20;96.70;;;;;;4875573;29;20049;-78
2021/12/03 19:58:23;;;;;;;13.30;8.30;;;8.10;96.70;;;;;;4900606;29;20048;-77
2021/12/03 20:00:53;;;;;;;13.60;8.57;;;7.90;96.70;;;;;;4895151;29;20045;-76
2021/12/03 20:03:21;;;;;;;13.60;8.40;;;7.90;96.70;;;;;;4882068;29;20067;-76
2021/12/03 20:05:50;;;;;;;16.48;9.52;;;7.90;96.70;;;;;;4898808;29;20044;-76
2021/12/03 20:08:21;;;;;;;16.25;10.57;;;7.90;96.70;;;;;;4903451;29;20044;-76
2021/12/03 20:10:50;;;;;;;20.70;11.82;;;8.00;96.70;;;;;;4871984;29;20147;-76
2021/12/03 20:13:23;;;;;;;15.57;11.45;;;8.00;96.70;;;;;;4905076;29;20084;-75
2021/12/03 20:21:05;;;;;;;16.67;12.98;;;7.90;96.70;;;;;;4916191;29;20047;-76
2021/12/03 20:28:55;;;;;;;22.40;14.52;;;7.70;96.70;;;;;;4916986;29;20039;-76
2021/12/03 20:31:27;;;;;;;23.42;14.95;;;7.80;96.70;;;;;;4915718;29;20117;-76
2021/12/03 20:36:44;;;;;;;20.48;13.27;;;8.00;96.70;;;;;;4919749;29;20040;-76
2021/12/03 20:39:23;;;;;;;25.55;15.27;;;7.90;96.70;;;;;;4916478;29;20046;-76
2021/12/03 20:42:02;;;;;;;22.63;15.07;;;7.80;96.70;;;;;;4920415;29;20050;-76
2021/12/03 20:48:01;;;;;;;19.80;13.13;;;7.70;96.70;;;;;;4920592;29;20074;-77
2021/12/03 20:50:10;;;;;;;19.70;12.90;;;7.80;96.70;;;;;;4886539;29;20055;-76
2021/12/03 20:52:43;;;;;;;17.02;11.73;;;7.90;96.70;;;;;;4912655;29;20075;-77
2021/12/03 20:58:29;;;;;;;127.95;42.67;;;7.70;96.70;;;;;;4901696;29;20043;-77